Time;durP1;ratioP1;P1;durP2;ratioP2;P2;SDS_P1;SDS_P2;PMS_P1;PMS_P2;Temp;Humidity;BMP_temperature;BMP_pressure;BME280_temperature;BME280_humidity;BME280_pressure;Samples;Min_cycle;Max_cycle;Signal;HPM_P1;HPM_P2
2023/03/05 00:01:24;;;;;;;26.35;15.55;;;;;;;5.28;75.14;94310.03;5071093;28;20420;-82
2023/03/05 00:03:52;;;;;;;29.35;16.05;;;;;;;5.33;75.31;94322.59;5071411;28;20044;-82
2023/03/05 00:06:18;;;;;;;28.50;15.93;;;;;;;5.43;75.20;94341.63;5037509;28;20027;-82
2023/03/05 00:08:44;;;;;;;27.85;15.05;;;;;;;4.84;74.76;94239.28;5054234;28;20032;-83
2023/03/05 00:11:10;;;;;;;29.50;16.20;;;;;;;5.41;75.23;94332.38;5070587;28;20016;-83
2023/03/05 00:13:36;;;;;;;28.55;15.63;;;;;;;5.23;74.91;94298.41;5037586;28;20106;-82
2023/03/05 00:16:05;;;;;;;27.70;16.33;;;;;;;5.41;74.37;94327.22;5036674;28;20494;-83
2023/03/05 00:18:31;;;;;;;24.77;15.00;;;;;;;5.45;74.78;94326.06;5036173;28;20085;-83
2023/03/05 00:20:56;;;;;;;27.80;15.07;;;;;;;5.41;74.43;94324.66;5052959;28;20033;-82
2023/03/05 00:23:22;;;;;;;27.58;15.18;;;;;;;5.50;74.63;94326.56;5036878;28;20031;-82
2023/03/05 00:25:47;;;;;;;27.58;15.52;;;;;;;5.40;74.91;94321.22;5054186;28;20039;-83
2023/03/05 00:28:13;;;;;;;31.38;16.65;;;;;;;5.12;75.31;94270.84;5070568;28;20052;-83
2023/03/05 00:30:38;;;;;;;31.23;17.75;;;;;;;5.45;75.59;94313.19;5054084;28;20043;-81
2023/03/05 00:33:04;;;;;;;35.45;19.17;;;;;;;5.47;75.85;94306.19;5071053;28;20024;-81
2023/03/05 00:35:30;;;;;;;34.65;19.48;;;;;;;5.30;75.76;94285.00;5053960;28;20029;-80
2023/03/05 00:37:55;;;;;;;33.55;18.38;;;;;;;5.51;75.95;94320.47;5053768;28;20040;-81
2023/03/05 00:40:20;;;;;;;27.30;16.58;;;;;;;5.21;75.93;94269.34;5053530;28;20029;-83
2023/03/05 00:42:46;;;;;;;28.48;15.48;;;;;;;5.48;75.75;94294.94;5069198;28;20029;-81
2023/03/05 00:45:11;;;;;;;24.80;14.80;;;;;;;5.54;75.94;94309.94;5053422;28;20043;-81
2023/03/05 00:47:37;;;;;;;21.23;13.50;;;;;;;5.27;75.32;94256.91;5053424;28;20032;-81
2023/03/05 00:50:03;;;;;;;26.42;14.55;;;;;;;5.48;74.82;94289.78;5037173;28;20029;-82
2023/03/05 00:52:29;;;;;;;23.80;13.43;;;;;;;5.23;74.53;94250.28;5071433;28;20100;-81
2023/03/05 00:54:54;;;;;;;22.42;13.45;;;;;;;5.24;74.17;94248.56;5052609;28;20043;-82
2023/03/05 00:57:20;;;;;;;26.65;14.52;;;;;;;5.52;73.29;94278.34;5069664;28;20044;-81
2023/03/05 00:59:45;;;;;;;22.80;13.57;;;;;;;5.54;73.58;94279.88;5071098;28;20499;-81
2023/03/05 01:02:11;;;;;;;19.88;13.27;;;;;;;5.50;73.40;94268.13;5053490;28;20099;-81
2023/03/05 01:04:37;;;;;;;21.48;13.02;;;;;;;5.60;73.49;94281.19;5070052;28;20441;-81
2023/03/05 01:07:02;;;;;;;25.33;14.75;;;;;;;5.54;73.38;94276.44;5053214;28;20066;-81
2023/03/05 01:09:29;;;;;;;22.38;14.25;;;;;;;5.58;73.34;94272.75;5071104;28;20037;-81
2023/03/05 01:11:54;;;;;;;21.95;14.15;;;;;;;5.43;73.07;94248.88;5053057;28;20032;-81
2023/03/05 01:14:20;;;;;;;20.63;14.32;;;;;;;5.70;72.40;94271.84;5052891;28;20055;-80
2023/03/05 01:16:46;;;;;;;24.50;13.90;;;;;;;5.35;73.18;94235.75;5052878;28;20027;-84
2023/03/05 01:19:12;;;;;;;25.92;13.70;;;;;;;5.54;72.07;94268.72;5069983;28;20036;-81
2023/03/05 01:21:37;;;;;;;20.55;12.70;;;;;;;5.49;72.55;94266.50;5069516;28;20401;-81
2023/03/05 01:24:03;;;;;;;22.33;12.57;;;;;;;5.54;72.62;94276.44;5053047;28;20090;-82
2023/03/05 01:26:28;;;;;;;22.98;13.27;;;;;;;5.46;72.69;94255.56;5052882;28;20059;-81
2023/03/05 01:28:54;;;;;;;21.60;13.27;;;;;;;5.41;72.47;94253.34;5053207;28;20036;-80
2023/03/05 01:31:20;;;;;;;23.05;13.45;;;;;;;5.36;72.28;94253.66;5069562;28;20035;-81
2023/03/05 01:33:45;;;;;;;21.23;12.32;;;;;;;5.34;72.79;94270.97;5036156;28;20032;-81
2023/03/05 01:36:13;;;;;;;20.42;12.80;;;;;;;5.29;73.15;94261.91;5052926;28;20032;-81
2023/03/05 01:38:40;;;;;;;23.27;14.45;;;;;;;5.25;73.36;94274.19;5052963;28;20029;-81
2023/03/05 01:41:06;;;;;;;23.40;14.55;;;;;;;5.23;73.36;94270.91;5052822;28;20572;-82
2023/03/05 01:43:31;;;;;;;23.08;14.30;;;;;;;5.22;73.24;94258.16;5069610;28;20029;-82
2023/03/05 01:46:15;;;;;;;20.52;13.70;;;;;;;5.23;72.91;94267.50;5069614;28;20064;-82
2023/03/05 01:48:46;;;;;;;31.05;17.05;;;;;;;4.90;72.86;94225.16;5069543;28;20036;-81
2023/03/05 01:51:11;;;;;;;33.70;18.73;;;;;;;5.00;72.53;94248.53;5052995;28;20044;-81
2023/03/05 01:53:37;;;;;;;33.78;17.73;;;;;;;4.43;72.80;94168.38;5053178;28;20505;-82
2023/03/05 01:56:03;;;;;;;26.65;15.80;;;;;;;4.80;73.07;94225.00;5052960;28;20036;-81
2023/03/05 01:58:28;;;;;;;32.58;17.13;;;;;;;5.02;73.31;94267.28;5036256;28;20045;-81
2023/03/05 02:00:53;;;;;;;28.80;14.43;;;;;;;4.62;73.88;94218.53;5070680;28;20044;-82
2023/03/05 02:03:19;;;;;;;21.00;12.82;;;;;;;4.98;73.93;94274.38;5071255;28;20016;-81
2023/03/05 02:05:45;;;;;;;22.27;13.90;;;;;;;5.02;74.05;94269.84;5053401;28;20036;-80
2023/03/05 02:08:15;;;;;;;22.55;13.70;;;;;;;4.95;74.07;94260.91;5073107;28;20494;-81
2023/03/05 02:10:48;;;;;;;22.07;13.53;;;;;;;5.03;73.56;94267.16;5040250;28;20123;-81
2023/03/05 02:13:24;;;;;;;22.50;13.05;;;;;;;4.89;72.79;94234.66;5073329;28;20032;-81
2023/03/05 02:15:50;;;;;;;26.80;14.35;;;;;;;4.75;72.70;94227.06;5057177;28;20033;-81
2023/03/05 02:18:16;;;;;;;24.38;13.55;;;;;;;4.82;72.94;94240.31;5056658;28;20136;-81
2023/03/05 02:20:49;;;;;;;22.85;14.13;;;;;;;4.98;72.78;94268.41;5056227;28;20107;-80
2023/03/05 02:23:15;;;;;;;25.00;14.02;;;;;;;4.97;73.44;94272.72;5072757;28;20028;-82
2023/03/05 02:25:40;;;;;;;22.38;14.07;;;;;;;4.75;73.86;94226.25;5073906;28;20512;-81
2023/03/05 02:28:17;;;;;;;23.35;12.70;;;;;;;4.97;73.71;94266.75;5055957;28;20028;-82
2023/03/05 02:30:42;;;;;;;25.33;13.00;;;;;;;4.87;74.11;94261.41;5072433;28;20111;-82
2023/03/05 02:33:08;;;;;;;23.08;13.02;;;;;;;4.84;73.56;94247.00;5055941;28;20062;-82
2023/03/05 02:35:33;;;;;;;23.83;13.32;;;;;;;4.78;73.55;94241.47;5039619;28;20410;-82
2023/03/05 02:37:59;;;;;;;26.48;14.88;;;;;;;4.66;73.44;94243.16;5055942;28;20029;-81
2023/03/05 02:40:24;;;;;;;24.17;12.88;;;;;;;4.76;74.20;94254.44;5072609;28;20048;-82
2023/03/05 02:42:50;;;;;;;26.58;15.45;;;;;;;4.44;74.51;94218.88;5072395;28;20033;-82
2023/03/05 02:45:15;;;;;;;25.08;14.82;;;;;;;4.68;74.20;94249.00;5072374;28;20062;-83
2023/03/05 02:47:41;;;;;;;22.70;14.50;;;;;;;4.85;74.09;94281.31;5055704;28;20029;-82
2023/03/05 02:50:07;;;;;;;23.20;12.90;;;;;;;4.73;72.91;94240.97;5038938;28;20032;-82
2023/03/05 02:52:32;;;;;;;20.58;12.55;;;;;;;4.79;73.49;94254.25;5039141;28;20099;-82
2023/03/05 02:54:58;;;;;;;24.17;13.63;;;;;;;4.76;73.49;94256.19;5055834;28;20537;-81
2023/03/05 02:57:23;;;;;;;22.02;12.10;;;;;;;4.62;73.80;94236.56;5055263;28;20036;-82
2023/03/05 02:59:49;;;;;;;22.77;12.35;;;;;;;4.86;73.86;94267.50;5039078;28;20028;-82
2023/03/05 03:02:15;;;;;;;23.25;12.73;;;;;;;4.78;74.45;94260.31;5038779;28;20028;-82
2023/03/05 03:04:41;;;;;;;20.38;11.55;;;;;;;4.93;74.13;94261.00;5055503;28;20070;-81
2023/03/05 03:07:06;;;;;;;18.70;11.77;;;;;;;4.87;73.99;94274.28;5055392;28;20036;-82
2023/03/05 03:09:34;;;;;;;19.90;11.40;;;;;;;4.63;73.17;94227.94;5055698;28;20086;-82
2023/03/05 03:11:59;;;;;;;22.85;12.77;;;;;;;4.67;73.03;94234.50;5055452;28;20071;-82
2023/03/05 03:14:25;;;;;;;22.35;11.88;;;;;;;4.87;72.80;94266.56;5055572;28;20052;-82
2023/03/05 03:16:50;;;;;;;20.08;11.55;;;;;;;4.75;71.95;94251.97;5071546;28;20502;-82
2023/03/05 03:19:15;;;;;;;26.30;14.35;;;;;;;4.81;73.17;94278.09;5055035;28;20066;-82
2023/03/05 03:21:41;;;;;;;28.20;15.77;;;;;;;4.74;73.52;94261.47;5071880;28;20402;-82
2023/03/05 03:24:06;;;;;;;24.75;14.80;;;;;;;4.84;73.26;94282.22;5038634;28;20430;-82
2023/03/05 03:26:32;;;;;;;22.25;13.02;;;;;;;4.81;71.10;94259.28;5071447;28;20033;-82
2023/03/05 03:28:57;;;;;;;22.55;13.45;;;;;;;4.91;71.36;94276.56;5071633;28;20032;-82
2023/03/05 03:31:23;;;;;;;24.38;13.77;;;;;;;5.04;70.14;94270.53;5038576;28;20398;-82
2023/03/05 03:33:48;;;;;;;20.20;11.98;;;;;;;5.00;70.19;94271.69;5038417;28;20029;-82
2023/03/05 03:36:14;;;;;;;22.38;13.43;;;;;;;5.04;71.10;94263.66;5073039;28;20043;-82
2023/03/05 03:38:40;;;;;;;25.23;13.02;;;;;;;4.83;71.36;94229.94;5055049;28;20543;-82
2023/03/05 03:41:06;;;;;;;23.98;13.10;;;;;;;5.02;71.41;94265.50;5054966;28;20035;-82
2023/03/05 03:43:32;;;;;;;21.48;12.95;;;;;;;5.00;71.45;94263.97;5073430;28;20107;-82
2023/03/05 03:45:58;;;;;;;25.92;14.32;;;;;;;4.82;70.91;94233.44;5038726;28;20093;-82
2023/03/05 03:48:23;;;;;;;22.85;13.57;;;;;;;5.11;69.95;94272.59;5071502;28;20028;-81
2023/03/05 03:50:48;;;;;;;22.45;12.65;;;;;;;5.20;68.34;94273.69;5038430;28;20029;-82
2023/03/05 03:53:16;;;;;;;21.20;12.60;;;;;;;5.13;67.39;94246.75;5038346;28;20611;-82
2023/03/05 03:55:41;;;;;;;23.13;12.48;;;;;;;5.29;66.75;94261.91;5054792;28;20494;-82
2023/03/05 03:58:07;;;;;;;25.25;13.32;;;;;;;5.20;66.75;94258.25;5070903;28;20105;-81
2023/03/05 04:00:33;;;;;;;22.00;12.38;;;;;;;4.83;65.84;94203.38;5071320;28;20032;-81
2023/03/05 04:02:58;;;;;;;26.80;14.07;;;;;;;5.12;66.82;94271.66;5038157;28;20035;-81
2023/03/05 04:05:24;;;;;;;26.13;13.00;;;;;;;5.09;67.07;94265.91;5071233;28;20029;-81
2023/03/05 04:07:50;;;;;;;27.27;14.35;;;;;;;5.28;66.56;94280.88;5054613;28;20036;-82
2023/03/05 04:10:16;;;;;;;26.40;15.05;;;;;;;5.15;66.19;94268.03;5038339;28;20036;-81
2023/03/05 04:12:42;;;;;;;24.70;14.10;;;;;;;5.23;66.05;94277.81;5037962;28;20025;-82
2023/03/05 04:15:08;;;;;;;22.83;13.77;;;;;;;5.18;66.04;94270.41;5071034;28;20043;-81
2023/03/05 04:17:34;;;;;;;22.02;12.88;;;;;;;5.22;65.23;94277.00;5070969;28;20047;-82
2023/03/05 04:20:00;;;;;;;23.00;13.30;;;;;;;4.99;65.78;94254.63;5054265;28;20040;-82
2023/03/05 04:22:25;;;;;;;21.75;12.23;;;;;;;5.16;65.66;94282.56;5037650;28;20387;-82
2023/03/05 04:24:51;;;;;;;22.85;12.88;;;;;;;5.06;65.45;94271.25;5054307;28;20264;-82
2023/03/05 04:27:16;;;;;;;25.67;13.88;;;;;;;5.06;64.83;94235.22;5037578;28;20024;-82
2023/03/05 04:29:42;;;;;;;23.48;13.50;;;;;;;5.10;65.38;94276.09;5070478;28;20090;-82
2023/03/05 04:32:07;;;;;;;24.42;13.05;;;;;;;5.13;66.05;94275.06;5037582;28;20029;-82
2023/03/05 04:34:33;;;;;;;24.45;13.35;;;;;;;5.12;65.91;94275.97;5037828;28;20059;-82
2023/03/05 04:36:58;;;;;;;27.17;13.65;;;;;;;5.23;65.14;94260.59;5072109;28;20035;-82
2023/03/05 04:39:24;;;;;;;22.90;13.75;;;;;;;5.05;65.03;94255.00;5070989;28;20036;-82
2023/03/05 04:41:49;;;;;;;22.40;13.30;;;;;;;5.20;64.87;94263.41;5053805;28;20092;-82
2023/03/05 04:44:16;;;;;;;23.52;14.02;;;;;;;5.25;64.95;94266.47;5071935;28;20490;-82
2023/03/05 04:46:42;;;;;;;24.45;13.57;;;;;;;5.07;64.99;94249.72;5053845;28;20090;-81
2023/03/05 04:49:07;;;;;;;25.63;13.93;;;;;;;5.09;65.41;94264.13;5053916;28;20032;-81
2023/03/05 04:51:33;;;;;;;26.25;13.85;;;;;;;5.01;65.55;94263.03;5070545;28;20086;-82
2023/03/05 04:53:58;;;;;;;29.02;14.48;;;;;;;4.78;65.35;94226.84;5070290;28;20488;-82
2023/03/05 04:56:24;;;;;;;25.52;14.15;;;;;;;4.97;65.60;94254.72;5036813;28;20023;-81
2023/03/05 04:58:49;;;;;;;26.45;13.05;;;;;;;5.00;65.54;94256.25;5070389;28;20028;-82
2023/03/05 05:01:14;;;;;;;24.73;12.80;;;;;;;5.01;65.25;94273.34;5053801;28;20024;-82
2023/03/05 05:03:40;;;;;;;26.40;13.07;;;;;;;5.03;64.60;94269.72;5037008;28;20024;-82
2023/03/05 05:06:05;;;;;;;22.55;13.27;;;;;;;4.97;65.19;94271.91;5037122;28;20074;-82
2023/03/05 05:08:31;;;;;;;24.35;13.65;;;;;;;4.91;65.49;94252.56;5053932;28;20028;-82
2023/03/05 05:11:01;;;;;;;24.77;13.48;;;;;;;4.84;65.06;94236.72;5070247;28;20453;-82
2023/03/05 05:13:27;;;;;;;20.52;13.18;;;;;;;5.00;65.33;94276.84;5070290;28;20032;-82
2023/03/05 05:15:52;;;;;;;24.50;13.05;;;;;;;4.99;63.82;94280.38;5070098;28;20059;-82
2023/03/05 05:18:18;;;;;;;25.83;12.90;;;;;;;4.83;64.50;94255.66;5070323;28;20478;-81
2023/03/05 05:20:43;;;;;;;25.70;13.90;;;;;;;5.05;65.06;94279.94;5036892;28;20033;-80
2023/03/05 05:23:08;;;;;;;22.67;12.93;;;;;;;5.04;65.30;94278.25;5070366;28;20035;-82
2023/03/05 05:25:34;;;;;;;28.27;14.25;;;;;;;5.13;65.31;94281.03;5053351;28;20028;-82
2023/03/05 05:27:59;;;;;;;22.60;12.60;;;;;;;5.21;63.68;94285.66;5069644;28;20029;-82
2023/03/05 05:30:25;;;;;;;25.80;13.02;;;;;;;5.20;63.05;94281.41;5053644;28;20029;-82
2023/03/05 05:32:50;;;;;;;25.02;13.55;;;;;;;4.83;63.03;94223.97;5070300;28;20520;-83
2023/03/05 05:35:16;;;;;;;24.73;14.35;;;;;;;5.29;62.91;94282.53;5037012;28;20044;-82
2023/03/05 05:37:41;;;;;;;26.38;13.38;;;;;;;5.08;62.84;94272.00;5053546;28;20036;-82
2023/03/05 05:40:08;;;;;;;21.52;12.95;;;;;;;5.34;62.00;94289.00;5053240;28;20036;-82
2023/03/05 05:42:33;;;;;;;21.88;12.15;;;;;;;5.36;61.63;94289.72;5057218;28;20040;-82
2023/03/05 05:44:59;;;;;;;24.98;12.70;;;;;;;5.43;60.72;94286.69;5075090;28;20457;-80
2023/03/05 05:47:24;;;;;;;20.17;10.85;;;;;;;5.50;60.70;94287.94;5075080;28;20605;-82
2023/03/05 05:49:50;;;;;;;18.90;11.07;;;;;;;5.42;60.29;94283.31;5073770;28;20024;-82
2023/03/05 05:52:15;;;;;;;19.95;11.77;;;;;;;5.23;61.03;94250.28;5040421;28;20048;-82
2023/03/05 05:54:42;;;;;;;18.33;11.13;;;;;;;5.52;59.96;94283.50;5056912;28;20553;-80
2023/03/05 05:57:07;;;;;;;20.55;11.48;;;;;;;5.38;59.91;94262.09;5056914;28;20098;-81
2023/03/05 05:59:33;;;;;;;22.85;11.73;;;;;;;5.48;58.85;94264.84;5057141;28;20036;-82
2023/03/05 06:01:58;;;;;;;22.75;12.10;;;;;;;5.80;58.33;94283.16;5073460;28;20380;-81
2023/03/05 06:04:23;;;;;;;21.85;11.10;;;;;;;5.82;58.20;94280.44;5040484;28;20032;-81
2023/03/05 06:06:49;;;;;;;21.10;11.05;;;;;;;6.16;56.55;94299.47;5039969;28;20464;-82
2023/03/05 06:09:14;;;;;;;20.08;11.07;;;;;;;6.26;57.04;94297.03;5073518;28;20471;-82
2023/03/05 06:11:40;;;;;;;19.83;11.07;;;;;;;5.77;57.11;94211.19;5056608;28;20024;-82
2023/03/05 06:14:07;;;;;;;19.27;10.18;;;;;;;6.39;56.30;94295.19;5073200;28;20078;-82
2023/03/05 06:16:33;;;;;;;19.05;10.23;;;;;;;6.67;55.05;94306.84;5056834;28;20040;-82
2023/03/05 06:18:58;;;;;;;17.98;9.82;;;;;;;6.66;54.58;94281.16;5072890;28;20056;-80
2023/03/05 06:21:24;;;;;;;17.95;9.77;;;;;;;7.77;51.47;94294.03;5072788;28;20017;-81
2023/03/05 06:23:50;;;;;;;19.33;9.93;;;;;;;8.06;49.56;94242.56;5056635;28;20033;-82
2023/03/05 06:26:17;;;;;;;17.20;9.40;;;;;;;10.10;46.15;94300.31;5056369;28;20043;-82
2023/03/05 06:28:42;;;;;;;17.52;9.98;;;;;;;11.42;42.31;94283.03;5056300;28;20036;-82
2023/03/05 06:31:13;;;;;;;17.50;10.07;;;;;;;12.55;39.91;94202.72;5039631;28;20029;-82
2023/03/05 06:33:39;;;;;;;18.70;10.70;;;;;;;13.68;37.49;94299.91;5072877;28;20024;-81
2023/03/05 06:36:07;;;;;;;16.55;9.95;;;;;;;14.48;35.97;94284.53;5039648;28;20465;-81
2023/03/05 06:38:33;;;;;;;18.17;11.68;;;;;;;14.71;33.94;94235.88;5072511;28;20155;-82
2023/03/05 06:41:08;;;;;;;19.88;13.27;;;;;;;15.51;32.38;94232.34;5056019;28;20465;-82
2023/03/05 06:43:34;;;;;;;18.90;11.65;;;;;;;16.76;30.55;94295.06;5056502;28;20102;-82
2023/03/05 06:46:26;;;;;;;20.40;13.02;;;;;;;17.36;29.34;94282.88;5055960;28;20028;-82
2023/03/05 06:48:54;;;;;;;15.68;10.50;;;;;;;18.10;27.73;94288.03;5072235;28;20075;-82
2023/03/05 06:51:22;;;;;;;24.02;16.35;;;;;;;18.46;26.97;94231.97;5072227;28;20020;-82
2023/03/05 06:53:47;;;;;;;14.93;9.38;;;;;;;19.36;25.89;94298.84;5055830;28;20111;-82
2023/03/05 06:56:15;;;;;;;14.13;9.30;;;;;;;19.20;26.16;94299.97;5073560;28;20104;-82
2023/03/05 06:58:41;;;;;;;16.50;11.70;;;;;;;18.03;26.97;94284.53;5071771;28;20078;-82
2023/03/05 07:01:07;;;;;;;38.97;21.70;;;;;;;19.27;25.45;94289.47;5039289;28;20033;-82
2023/03/05 07:03:33;;;;;;;16.38;10.65;;;;;;;19.54;25.17;94307.06;5039088;28;20028;-82
2023/03/05 07:06:04;;;;;;;15.48;10.13;;;;;;;19.61;24.56;94299.19;5055581;28;20032;-83
2023/03/05 07:08:30;;;;;;;16.08;11.05;;;;;;;18.18;26.00;94293.19;5072212;28;20024;-82
2023/03/05 07:10:56;;;;;;;15.48;10.65;;;;;;;17.47;26.37;94285.03;5038887;28;20036;-82
2023/03/05 07:13:21;;;;;;;19.40;11.10;;;;;;;18.55;25.70;94267.63;5072225;28;20062;-82
2023/03/05 07:15:47;;;;;;;18.45;11.32;;;;;;;17.98;25.99;94297.41;5055223;28;20438;-82
2023/03/05 07:18:12;;;;;;;16.15;11.95;;;;;;;18.13;26.02;94302.63;5071922;28;20036;-81
2023/03/05 07:20:38;;;;;;;15.23;10.68;;;;;;;18.79;25.03;94298.03;5038589;28;20028;-81
2023/03/05 07:23:03;;;;;;;16.92;10.63;;;;;;;19.04;24.75;94289.72;5055327;28;20086;-82
2023/03/05 07:25:29;;;;;;;15.25;10.93;;;;;;;19.24;24.22;94268.78;5073005;28;20032;-81
2023/03/05 07:27:55;;;;;;;18.33;11.60;;;;;;;20.25;23.03;94298.03;5038553;28;20043;-82
2023/03/05 07:30:20;;;;;;;21.80;11.35;;;;;;;18.43;24.86;94293.63;5071823;28;20033;-81
2023/03/05 07:32:46;;;;;;;21.20;12.93;;;;;;;17.02;26.43;94301.75;5038256;28;20549;-83
2023/03/05 07:35:11;;;;;;;19.65;12.70;;;;;;;15.37;29.46;94277.53;5054896;28;20033;-82
2023/03/05 07:37:37;;;;;;;17.75;12.15;;;;;;;13.90;31.46;94308.94;5072874;28;20033;-81
2023/03/05 07:40:03;;;;;;;21.30;11.50;;;;;;;13.42;32.23;94282.53;5071495;28;20498;-81
2023/03/05 07:42:29;;;;;;;23.42;12.63;;;;;;;12.94;33.26;94313.41;5055013;28;20066;-82
2023/03/05 07:44:54;;;;;;;20.27;11.95;;;;;;;12.50;34.12;94304.78;5054766;28;20056;-81
2023/03/05 07:47:20;;;;;;;26.55;14.93;;;;;;;11.85;35.20;94284.16;5038058;28;20040;-82
2023/03/05 07:49:45;;;;;;;27.55;15.13;;;;;;;11.71;36.55;94308.09;5054510;28;20036;-82
2023/03/05 07:52:11;;;;;;;22.25;13.35;;;;;;;10.94;37.31;94310.06;5037943;28;20029;-82
2023/03/05 07:54:39;;;;;;;39.38;20.00;;;;;;;10.64;38.82;94311.91;5037827;28;20106;-82
2023/03/05 07:57:09;;;;;;;23.52;13.70;;;;;;;10.73;39.13;94316.28;5054544;28;20044;-83
2023/03/05 07:59:34;;;;;;;29.52;15.82;;;;;;;10.26;40.04;94317.94;5054830;28;20067;-83
2023/03/05 08:02:00;;;;;;;26.13;15.50;;;;;;;10.10;41.18;94315.06;5054826;28;20501;-82
2023/03/05 08:04:25;;;;;;;37.70;21.30;;;;;;;9.76;41.44;94298.09;5071876;28;20033;-83
2023/03/05 08:06:51;;;;;;;28.98;15.10;;;;;;;9.64;41.68;94306.97;5054266;28;20032;-82
2023/03/05 08:09:17;;;;;;;23.73;13.50;;;;;;;9.38;42.84;94314.38;5037722;28;20028;-82
2023/03/05 08:11:42;;;;;;;24.80;13.90;;;;;;;9.43;42.61;94314.81;5054655;28;20021;-83
2023/03/05 08:14:10;;;;;;;25.45;14.32;;;;;;;9.28;42.65;94298.81;5038007;28;20040;-83
2023/03/05 08:16:37;;;;;;;25.27;13.55;;;;;;;9.18;43.69;94316.91;5056292;28;21502;-83
2023/03/05 08:19:02;;;;;;;26.85;15.73;;;;;;;8.82;43.91;94302.69;5054281;28;20414;-83
2023/03/05 08:21:29;;;;;;;27.17;15.05;;;;;;;8.69;44.78;94286.53;5070478;28;20025;-82
2023/03/05 08:23:55;;;;;;;40.70;18.55;;;;;;;8.75;44.73;94286.06;5054210;28;20028;-83
2023/03/05 08:26:22;;;;;;;37.65;19.27;;;;;;;8.55;45.49;94284.28;5070528;28;20081;-82
2023/03/05 08:28:48;;;;;;;32.58;16.90;;;;;;;8.28;45.75;94295.94;5053166;28;20051;-82
2023/03/05 08:31:14;;;;;;;45.33;20.65;;;;;;;8.32;46.25;94314.63;5036382;28;20052;-82
2023/03/05 08:33:39;;;;;;;34.33;16.85;;;;;;;8.27;46.41;94312.41;5069382;28;20032;-82
2023/03/05 08:36:05;;;;;;;45.00;20.23;;;;;;;8.38;46.22;94312.34;5054031;28;20037;-83
2023/03/05 08:38:31;;;;;;;39.28;19.38;;;;;;;8.15;46.49;94297.88;5069607;28;20113;-83
2023/03/05 08:40:56;;;;;;;62.80;25.25;;;;;;;8.29;45.79;94300.16;5036726;28;20507;-83
2023/03/05 08:43:22;;;;;;;34.70;17.90;;;;;;;8.20;45.54;94303.53;5054270;28;20008;-83
2023/03/05 08:45:48;;;;;;;36.63;18.40;;;;;;;8.03;46.96;94302.31;5070306;28;20032;-83
2023/03/05 08:48:14;;;;;;;62.17;24.80;;;;;;;8.14;47.13;94296.25;5053966;28;20075;-83
2023/03/05 08:50:39;;;;;;;44.30;23.38;;;;;;;8.03;47.48;94294.53;5071727;28;20498;-82
2023/03/05 08:53:05;;;;;;;29.98;18.40;;;;;;;7.95;47.45;94284.81;5070655;28;20032;-82
2023/03/05 08:55:30;;;;;;;26.58;16.08;;;;;;;8.10;47.12;94287.91;5069400;28;20044;-83
2023/03/05 08:57:56;;;;;;;30.67;16.52;;;;;;;8.18;47.39;94287.28;5070286;28;20459;-83
2023/03/05 09:00:21;;;;;;;29.40;15.68;;;;;;;8.17;47.17;94285.66;5037118;28;20032;-82
2023/03/05 09:02:47;;;;;;;26.25;16.10;;;;;;;7.45;46.67;94170.78;5071745;28;20032;-82
2023/03/05 09:05:12;;;;;;;37.88;22.15;;;;;;;8.26;46.73;94282.31;5070292;28;20036;-83
2023/03/05 09:07:38;;;;;;;32.25;15.48;;;;;;;8.21;46.99;94274.09;5053699;28;20043;-83
2023/03/05 09:10:05;;;;;;;24.73;14.13;;;;;;;8.25;47.13;94278.09;5036741;28;20123;-83
2023/03/05 09:12:31;;;;;;;27.88;14.60;;;;;;;8.23;47.05;94275.63;5053887;28;20032;-83
2023/03/05 09:14:56;;;;;;;29.80;16.98;;;;;;;8.36;47.44;94274.59;5035956;28;20127;-83
2023/03/05 09:17:22;;;;;;;25.80;13.77;;;;;;;8.44;46.37;94277.41;5053159;28;20027;-82
2023/03/05 09:19:48;;;;;;;23.27;14.23;;;;;;;8.38;45.60;94273.53;5070306;28;20462;-81
2023/03/05 09:22:14;;;;;;;27.30;15.35;;;;;;;8.23;44.55;94218.69;5037053;28;20032;-83
2023/03/05 09:24:39;;;;;;;31.60;16.58;;;;;;;8.58;44.14;94264.16;5036586;28;20025;-82
2023/03/05 09:27:05;;;;;;;25.50;13.73;;;;;;;8.42;43.71;94263.78;5036696;28;20033;-82
2023/03/05 09:29:30;;;;;;;26.40;14.23;;;;;;;8.57;43.29;94259.09;5071042;28;20493;-83
2023/03/05 09:31:56;;;;;;;24.05;13.80;;;;;;;8.62;43.01;94254.34;5052942;28;20025;-82
2023/03/05 09:34:21;;;;;;;25.60;15.55;;;;;;;8.64;42.86;94252.47;5071218;28;20513;-83
2023/03/05 09:36:47;;;;;;;23.98;13.70;;;;;;;8.60;43.03;94249.28;5070226;28;20089;-83
2023/03/05 09:39:13;;;;;;;24.65;14.20;;;;;;;8.60;43.05;94240.72;5036524;28;20518;-81
2023/03/05 09:42:04;;;;;;;29.55;15.00;;;;;;;8.38;42.42;94252.81;5036592;28;20460;-82
2023/03/05 09:44:49;;;;;;;43.00;21.85;;;;;;;8.22;41.95;94180.84;5071374;28;20033;-83
2023/03/05 09:47:27;;;;;;;26.50;15.43;;;;;;;8.65;41.83;94234.19;5069612;28;20032;-83
2023/03/05 09:49:55;;;;;;;28.20;16.65;;;;;;;8.59;42.15;94234.72;5052685;28;20494;-82
2023/03/05 09:52:22;;;;;;;23.05;14.02;;;;;;;8.64;41.51;94227.38;5069508;28;20033;-82
2023/03/05 09:54:52;;;;;;;23.95;13.93;;;;;;;8.34;41.70;94168.63;5053087;28;20037;-82
2023/03/05 09:57:20;;;;;;;27.50;17.63;;;;;;;8.54;41.59;94197.22;5053182;28;20052;-83
2023/03/05 09:59:47;;;;;;;22.25;14.82;;;;;;;8.86;41.76;94228.13;5053211;28;20043;-81
2023/03/05 10:02:34;;;;;;;28.42;18.55;;;;;;;8.96;41.68;94229.00;5052573;28;20035;-82
2023/03/05 10:05:24;;;;;;;25.10;14.93;;;;;;;8.91;41.87;94198.34;5036326;28;20055;-82
2023/03/05 10:07:54;;;;;;;22.75;14.18;;;;;;;9.13;41.56;94236.13;5069498;28;20028;-83
2023/03/05 10:10:23;;;;;;;24.92;15.40;;;;;;;9.17;41.39;94221.97;5052932;28;20059;-82
2023/03/05 10:12:55;;;;;;;25.08;14.80;;;;;;;9.12;41.16;94225.91;5053147;28;20046;-82
2023/03/05 10:16:08;;;;;;;26.02;14.88;;;;;;;9.11;41.56;94219.94;5036819;28;20075;-83
2023/03/05 10:18:46;;;;;;;29.90;15.63;;;;;;;9.33;41.64;94213.69;5056037;28;20043;-82
2023/03/05 10:21:17;;;;;;;23.23;14.15;;;;;;;9.18;40.87;94209.84;5070226;28;20031;-83
2023/03/05 10:24:05;;;;;;;19.92;12.82;;;;;;;9.09;40.16;94208.88;5069270;28;20044;-83
2023/03/05 10:26:43;;;;;;;27.98;16.50;;;;;;;9.08;40.58;94208.97;5069205;28;20020;-82
2023/03/05 10:29:37;;;;;;;23.95;14.43;;;;;;;9.26;40.68;94202.22;5072742;28;20036;-82
2023/03/05 10:32:29;;;;;;;24.63;15.73;;;;;;;9.39;40.93;94191.59;5055733;28;20020;-82
2023/03/05 10:35:04;;;;;;;;;;;;;;;9.53;40.67;94192.97;5054368;28;20048;-82
2023/03/05 10:37:35;;;;;;;21.23;13.23;;;;;;;9.61;40.39;94185.31;5072605;28;19918;-83
2023/03/05 10:40:29;;;;;;;22.63;13.23;;;;;;;9.59;40.40;94182.06;5072925;28;20036;-82
2023/03/05 10:43:15;;;;;;;27.35;16.60;;;;;;;9.72;40.81;94174.84;5072416;28;20112;-83
2023/03/05 10:45:45;;;;;;;25.95;15.65;;;;;;;9.49;40.67;94140.56;5072697;28;20039;-82
2023/03/05 10:48:29;;;;;;;23.48;14.52;;;;;;;9.83;39.95;94181.63;5039688;28;20025;-82
2023/03/05 10:51:17;;;;;;;25.73;15.07;;;;;;;9.60;39.82;94160.34;5073569;28;20475;-82
2023/03/05 10:53:55;;;;;;;26.13;15.25;;;;;;;9.57;40.15;94158.84;5055978;28;20059;-82
2023/03/05 10:56:22;;;;;;;24.52;14.18;;;;;;;9.63;39.83;94160.88;5040409;28;20067;-82
2023/03/05 10:58:48;;;;;;;26.23;16.33;;;;;;;9.60;40.10;94155.16;5056081;28;20041;-83
2023/03/05 11:01:14;;;;;;;28.15;18.60;;;;;;;9.67;40.05;94148.50;5039302;28;20111;-82
2023/03/05 11:03:56;;;;;;;23.73;14.88;;;;;;;9.72;39.58;94155.84;5072265;28;20176;-82
2023/03/05 11:06:40;;;;;;;22.02;13.15;;;;;;;9.75;39.17;94140.84;5055261;28;20502;-82
2023/03/05 11:09:14;;;;;;;19.30;13.43;;;;;;;9.72;39.85;94145.47;5072260;28;20060;-82
2023/03/05 11:11:40;;;;;;;20.40;12.60;;;;;;;9.72;39.53;94119.53;5072168;28;20028;-81
2023/03/05 11:14:21;;;;;;;18.45;11.45;;;;;;;9.85;39.21;94130.44;5055716;28;20411;-83
2023/03/05 11:16:47;;;;;;;19.55;12.38;;;;;;;9.64;39.83;94102.09;5040706;28;20717;-82
2023/03/05 11:19:23;;;;;;;25.77;15.60;;;;;;;9.85;39.99;94125.25;5072025;28;20087;-81
2023/03/05 11:22:05;;;;;;;21.55;12.50;;;;;;;9.88;40.13;94119.78;5038901;28;20035;-82
2023/03/05 11:24:32;;;;;;;19.92;12.52;;;;;;;9.89;39.92;94116.25;5071649;28;20067;-83
2023/03/05 11:26:58;;;;;;;18.23;11.43;;;;;;;9.87;40.21;94102.59;5054733;28;20033;-82